Alyeska Resort
Max's Hourly Weather Roundup
ALYESKA_MAX 10/25/2014
Click Here for Graph

        DATE  TIME   Air  Wind  Wind  Wind  BATT   Rel
                    Temp   Spd   Dir  Gust  Volt  Hum%
                      F   MPH   AVG   MPH   AVG   AVG

  10/25/2014 15:00    24     1   144     4 13.71   100
  10/25/2014 14:00    23     4   160     7 13.71   100
  10/25/2014 13:00    22     3   172     5 13.73   100
  10/25/2014 12:00    23     2   220     3 13.78   100
  10/25/2014 11:00    23     2   198     3 13.20   100
  10/25/2014 10:00    22     1   178     3 12.68   100
  10/25/2014 09:00    22     2   271     4 12.68   100
  10/25/2014 08:00    22     3   200     5 12.69   100
  10/25/2014 07:00    22     3   164     6 12.69   100
  10/25/2014 06:00    22     5   167     8 12.70   100
  10/25/2014 05:00    22     2   147     5 12.70   100
  10/25/2014 04:00    22     3   146     4 12.71   100
  10/25/2014 03:00    23     3   157     5 12.73   100
  10/25/2014 02:00    23     3   171     5 12.75   100
  10/25/2014 01:00    23     2   196     4 12.77   100
  10/24/2014 24:00    23     3   173     6 12.81   100
  10/24/2014 23:00    24     2   177     4 12.84   100
  10/24/2014 22:00    24     1   213     3 12.89   100
  10/24/2014 21:00    23     3   156     6 12.95   100
  10/24/2014 20:00    24     3   163     4 13.04   100
  10/24/2014 19:00    24     4   191     6 13.19   100
  10/24/2014 18:00    26     3   169     5 13.48   100
  10/24/2014 17:00    27     2   170     4 13.83   100
  10/24/2014 16:00    28     2   206     3 13.73   100


Click Here for Graph